createdAt,value
2019-02-20T00:01:58.900Z,49.60
2019-02-20T00:04:34.273Z,50.20
2019-02-20T00:07:08.766Z,50.80
2019-02-20T00:09:44.103Z,50.40
2019-02-20T00:12:19.086Z,50.20
2019-02-20T00:14:54.119Z,50.40
2019-02-20T00:17:27.470Z,50.60
2019-02-20T00:20:01.572Z,51.30
2019-02-20T00:22:40.174Z,51.20
2019-02-20T00:25:10.428Z,50.80
2019-02-20T00:27:44.646Z,50.30
2019-02-20T00:30:19.249Z,50.10
2019-02-20T00:32:52.689Z,49.40
2019-02-20T00:35:27.645Z,49.60
2019-02-20T00:38:03.038Z,50.50
2019-02-20T00:40:38.011Z,50.80
2019-02-20T00:43:11.894Z,50.10
2019-02-20T00:46:14.268Z,49.60
2019-02-20T00:49:16.289Z,50.00
2019-02-20T00:52:07.707Z,50.20
2019-02-20T00:54:42.228Z,50.20
2019-02-20T00:57:16.444Z,50.20
2019-02-20T00:59:49.797Z,50.40
2019-02-20T01:02:25.044Z,50.10
2019-02-20T01:04:58.881Z,49.90
2019-02-20T01:07:33.521Z,50.10
2019-02-20T01:10:07.874Z,50.00
2019-02-20T01:12:41.612Z,50.20
2019-02-20T01:15:15.598Z,50.70
2019-02-20T01:17:50.046Z,51.10
2019-02-20T01:20:24.486Z,51.30
2019-02-20T01:23:00.147Z,51.20
2019-02-20T01:25:36.187Z,51.00
2019-02-20T01:28:10.954Z,50.70
2019-02-20T01:30:45.300Z,50.90
2019-02-20T01:33:21.335Z,51.10
2019-02-20T01:35:56.254Z,50.80
2019-02-20T01:38:30.097Z,50.50
2019-02-20T01:41:04.967Z,50.20
2019-02-20T01:43:40.357Z,50.10
2019-02-20T01:46:16.916Z,50.00
2019-02-20T01:48:51.384Z,50.00
2019-02-20T01:51:27.371Z,50.00
2019-02-20T01:54:02.584Z,50.00
2019-02-20T01:56:39.611Z,49.90
2019-02-20T01:59:14.735Z,48.90
2019-02-20T02:01:49.741Z,48.20
2019-02-20T02:04:23.840Z,48.60
2019-02-20T02:06:59.333Z,46.60
2019-02-20T02:09:33.668Z,46.90
2019-02-20T02:12:08.063Z,46.80
2019-02-20T02:14:41.923Z,46.50
2019-02-20T02:17:15.847Z,47.10
2019-02-20T02:19:50.174Z,46.90
2019-02-20T02:22:24.427Z,46.80
2019-02-20T02:24:58.670Z,46.70
2019-02-20T02:27:33.752Z,46.30
2019-02-20T02:30:08.508Z,46.40
2019-02-20T02:32:43.142Z,46.70
2019-02-20T02:35:18.066Z,47.60
2019-02-20T02:37:52.895Z,48.10
2019-02-20T02:40:27.262Z,48.30
2019-02-20T02:43:03.642Z,48.50
2019-02-20T02:45:38.474Z,48.80
2019-02-20T02:48:12.794Z,49.10
2019-02-20T02:50:48.237Z,48.60
2019-02-20T02:53:30.752Z,48.50
2019-02-20T02:56:01.291Z,48.60
2019-02-20T02:58:36.431Z,48.60
2019-02-20T03:01:11.470Z,48.40
2019-02-20T03:03:46.824Z,48.40
2019-02-20T03:06:21.615Z,48.20
2019-02-20T03:08:56.475Z,48.00
2019-02-20T03:11:30.644Z,47.30
2019-02-20T03:14:04.719Z,47.20
2019-02-20T03:16:40.048Z,47.30
2019-02-20T03:19:15.273Z,47.00
2019-02-20T03:21:50.189Z,47.40
2019-02-20T03:24:25.945Z,47.20
2019-02-20T03:27:00.760Z,47.20
2019-02-20T03:29:35.678Z,46.80
2019-02-20T03:32:10.827Z,47.00
2019-02-20T03:34:45.601Z,47.40
2019-02-20T03:37:20.161Z,47.70
2019-02-20T03:39:54.476Z,47.90
2019-02-20T03:42:28.870Z,47.50
2019-02-20T03:45:03.973Z,47.70
2019-02-20T03:47:38.984Z,47.80
2019-02-20T03:50:13.126Z,47.40
2019-02-20T03:52:47.418Z,46.60
2019-02-20T03:55:22.278Z,46.70
2019-02-20T03:57:56.692Z,46.00
2019-02-20T04:00:34.656Z,45.70
2019-02-20T04:03:09.882Z,45.70
2019-02-20T04:05:44.161Z,45.90
2019-02-20T04:08:18.703Z,45.90
2019-02-20T04:10:53.123Z,45.70
2019-02-20T04:13:27.505Z,45.90
2019-02-20T04:16:03.074Z,45.30
2019-02-20T04:18:36.890Z,44.90
2019-02-20T04:21:11.760Z,45.00
2019-02-20T04:23:46.312Z,45.40
2019-02-20T04:26:21.675Z,45.80
2019-02-20T04:28:55.918Z,46.40
2019-02-20T04:31:30.279Z,46.00
2019-02-20T04:34:04.931Z,46.50
2019-02-20T04:36:39.421Z,47.00
2019-02-20T04:39:15.009Z,47.10
2019-02-20T04:41:50.425Z,47.30
2019-02-20T04:44:25.303Z,47.70
2019-02-20T04:47:00.640Z,47.80
2019-02-20T04:49:35.965Z,48.10
2019-02-20T04:52:10.991Z,48.30
2019-02-20T04:54:46.473Z,48.10
2019-02-20T04:57:20.812Z,47.70
2019-02-20T04:59:55.832Z,46.60
2019-02-20T05:02:30.861Z,45.90
2019-02-20T05:05:05.833Z,46.50
2019-02-20T05:07:41.089Z,46.60
2019-02-20T05:10:15.862Z,47.50
2019-02-20T05:12:51.001Z,48.00
2019-02-20T05:15:25.289Z,47.90
2019-02-20T05:18:00.239Z,49.30
2019-02-20T05:20:36.019Z,48.40
2019-02-20T05:23:11.554Z,48.00
2019-02-20T05:25:46.309Z,47.20
2019-02-20T05:28:21.407Z,46.40
2019-02-20T05:30:56.447Z,46.00
2019-02-20T05:33:30.194Z,45.80
2019-02-20T05:36:05.069Z,46.40
2019-02-20T05:38:39.726Z,46.60
2019-02-20T05:41:14.264Z,46.70
2019-02-20T05:43:48.765Z,46.40
2019-02-20T05:46:24.166Z,46.00
2019-02-20T05:48:58.401Z,45.70
2019-02-20T05:51:32.700Z,45.90
2019-02-20T05:54:09.221Z,45.70
2019-02-20T05:56:48.115Z,46.00
2019-02-20T05:59:23.270Z,45.40
2019-02-20T06:02:00.649Z,45.20
2019-02-20T06:04:41.825Z,45.10
2019-02-20T06:07:26.076Z,44.90
2019-02-20T06:09:56.854Z,45.10
2019-02-20T06:12:34.011Z,45.60
2019-02-20T06:15:13.242Z,45.40
2019-02-20T06:17:48.720Z,45.50
2019-02-20T06:20:23.738Z,46.60
2019-02-20T06:22:57.620Z,47.90
2019-02-20T06:25:31.904Z,47.20
2019-02-20T06:28:07.500Z,47.20
2019-02-20T06:30:44.202Z,46.70
2019-02-20T06:33:20.366Z,46.00
2019-02-20T06:35:55.543Z,45.70
2019-02-20T06:38:30.695Z,45.50
2019-02-20T06:41:04.893Z,45.90
2019-02-20T06:43:39.576Z,46.50
2019-02-20T06:46:15.024Z,46.70
2019-02-20T06:48:52.286Z,46.80
2019-02-20T06:51:28.450Z,46.50
2019-02-20T06:54:04.819Z,46.60
2019-02-20T06:56:40.408Z,46.60
2019-02-20T06:59:16.033Z,46.00
2019-02-20T07:01:52.186Z,46.00
2019-02-20T07:04:28.023Z,46.60
2019-02-20T07:07:44.936Z,46.90
2019-02-20T07:11:24.038Z,45.90
2019-02-20T07:15:07.522Z,45.90
2019-02-20T07:18:45.135Z,46.70
2019-02-20T07:22:17.219Z,45.20
2019-02-20T07:25:42.823Z,45.90
2019-02-20T07:29:26.621Z,47.10
2019-02-20T07:32:02.444Z,46.80
2019-02-20T07:34:39.630Z,46.10
2019-02-20T07:37:14.649Z,45.60
2019-02-20T07:39:50.891Z,45.50
2019-02-20T07:42:26.071Z,46.80
2019-02-20T07:45:01.002Z,47.20
2019-02-20T07:47:35.825Z,47.10
2019-02-20T07:50:12.580Z,47.70
2019-02-20T07:52:47.449Z,48.60
2019-02-20T07:55:23.602Z,47.90
2019-02-20T07:57:59.614Z,47.70
2019-02-20T08:00:35.597Z,47.80
2019-02-20T08:03:09.867Z,48.80
2019-02-20T08:05:45.157Z,47.20
2019-02-20T08:08:19.514Z,47.80
2019-02-20T08:10:54.323Z,47.80
2019-02-20T08:13:39.047Z,48.20
2019-02-20T08:16:08.761Z,49.10
2019-02-20T08:18:43.056Z,50.20
2019-02-20T08:21:19.083Z,51.80
2019-02-20T08:23:55.312Z,51.50
2019-02-20T08:26:30.668Z,52.60
2019-02-20T08:29:07.186Z,51.50
2019-02-20T08:31:42.772Z,51.40
2019-02-20T08:34:18.839Z,50.70
2019-02-20T08:36:55.723Z,50.30
2019-02-20T08:39:31.886Z,51.00
2019-02-20T08:42:06.908Z,51.70
2019-02-20T08:44:40.711Z,52.60
2019-02-20T08:47:15.593Z,51.60
2019-02-20T08:49:51.023Z,52.10
2019-02-20T08:52:26.335Z,52.50
2019-02-20T08:55:01.311Z,52.20
2019-02-20T08:57:36.007Z,52.30
2019-02-20T09:00:13.261Z,52.30
2019-02-20T09:02:47.590Z,52.60
2019-02-20T09:05:23.982Z,52.60
2019-02-20T09:07:57.787Z,53.70
2019-02-20T09:10:33.210Z,53.10
2019-02-20T09:13:09.322Z,52.70
2019-02-20T09:15:44.311Z,51.80
2019-02-20T09:18:18.709Z,51.50
2019-02-20T09:20:54.599Z,50.70
2019-02-20T09:23:29.057Z,49.50
2019-02-20T09:26:05.465Z,49.70
2019-02-20T09:28:58.150Z,49.90
2019-02-20T09:31:33.835Z,49.80
2019-02-20T09:34:11.407Z,50.00
2019-02-20T09:36:50.274Z,50.40
2019-02-20T09:39:49.806Z,51.00
2019-02-20T09:42:25.474Z,50.10
2019-02-20T09:45:00.506Z,49.70
2019-02-20T09:47:35.866Z,49.90
2019-02-20T09:50:11.210Z,49.70
2019-02-20T09:52:51.889Z,48.90
2019-02-20T09:55:23.328Z,48.50
2019-02-20T09:57:59.168Z,48.50
2019-02-20T10:00:35.284Z,48.10
2019-02-20T10:03:09.913Z,47.80
2019-02-20T10:05:44.856Z,49.40
2019-02-20T10:08:19.429Z,48.30
2019-02-20T10:10:54.616Z,47.80
2019-02-20T10:13:29.555Z,47.60
2019-02-20T10:16:04.030Z,48.60
2019-02-20T10:18:38.834Z,48.40
2019-02-20T10:21:14.048Z,49.20
2019-02-20T10:23:49.998Z,49.00
2019-02-20T10:26:24.440Z,48.10
2019-02-20T10:28:58.398Z,48.80
2019-02-20T10:31:33.085Z,49.30
2019-02-20T10:34:06.316Z,49.40
2019-02-20T10:36:39.623Z,47.80
2019-02-20T10:39:12.851Z,48.50
2019-02-20T10:41:46.794Z,47.80
2019-02-20T10:44:23.882Z,47.10
2019-02-20T10:46:58.047Z,47.60
2019-02-20T10:49:32.137Z,47.00
2019-02-20T10:52:06.226Z,47.10
2019-02-20T10:54:39.090Z,46.30
2019-02-20T10:57:12.967Z,46.40
2019-02-20T10:59:46.510Z,46.90
2019-02-20T11:02:21.015Z,46.10
2019-02-20T11:04:55.396Z,45.00
2019-02-20T11:07:28.803Z,43.70
2019-02-20T11:10:02.870Z,44.70
2019-02-20T11:12:36.687Z,44.40
2019-02-20T11:15:09.263Z,44.70
2019-02-20T11:17:42.244Z,44.10
2019-02-20T11:20:15.419Z,43.20
2019-02-20T11:22:49.681Z,42.70
2019-02-20T11:25:22.979Z,43.30
2019-02-20T11:27:56.293Z,43.10
2019-02-20T11:30:28.629Z,43.40
2019-02-20T11:33:03.366Z,43.40
2019-02-20T11:35:37.137Z,43.10
2019-02-20T11:38:10.877Z,43.30
2019-02-20T11:40:44.574Z,43.20
2019-02-20T11:43:18.516Z,42.60
2019-02-20T11:45:52.271Z,42.60
2019-02-20T11:48:26.838Z,42.60
2019-02-20T11:51:01.097Z,43.00
2019-02-20T11:53:37.392Z,43.10
2019-02-20T11:56:12.325Z,44.20
2019-02-20T11:58:49.909Z,43.70
2019-02-20T12:01:24.615Z,43.50
2019-02-20T12:04:00.029Z,43.40
2019-02-20T12:06:33.911Z,42.80
2019-02-20T12:09:11.446Z,42.60
2019-02-20T12:11:47.114Z,43.20
2019-02-20T12:14:24.698Z,41.70
2019-02-20T12:16:59.113Z,42.10
2019-02-20T12:19:36.714Z,42.00
2019-02-20T12:22:11.084Z,42.00
2019-02-20T12:24:46.475Z,41.20
2019-02-20T12:27:21.386Z,41.20
2019-02-20T12:29:55.990Z,42.60
2019-02-20T12:32:32.399Z,42.50
2019-02-20T12:35:07.162Z,41.40
2019-02-20T12:37:43.372Z,41.30
2019-02-20T12:40:18.545Z,42.30
2019-02-20T12:42:53.679Z,43.00
2019-02-20T12:45:30.368Z,43.50
2019-02-20T12:48:05.928Z,43.30
2019-02-20T12:50:41.283Z,42.60
2019-02-20T12:53:16.835Z,42.30
2019-02-20T12:55:52.718Z,41.70
2019-02-20T12:58:27.271Z,41.40
2019-02-20T13:01:02.827Z,41.30
2019-02-20T13:03:39.171Z,40.80
2019-02-20T13:06:14.643Z,39.80
2019-02-20T13:08:49.955Z,39.40
2019-02-20T13:11:25.588Z,39.30
2019-02-20T13:14:00.579Z,39.70
2019-02-20T13:16:37.797Z,41.10
2019-02-20T13:19:11.661Z,41.50
2019-02-20T13:21:46.775Z,41.40
2019-02-20T13:24:22.416Z,41.80
2019-02-20T13:26:57.243Z,41.00
2019-02-20T13:29:31.913Z,39.90
2019-02-20T13:32:05.082Z,40.60
2019-02-20T13:34:39.448Z,40.60
2019-02-20T13:37:14.303Z,40.00
2019-02-20T13:39:48.487Z,39.40
2019-02-20T13:42:23.763Z,39.00
2019-02-20T13:44:59.320Z,40.00
2019-02-20T13:47:37.961Z,42.30
2019-02-20T13:50:21.556Z,42.90
2019-02-20T13:52:56.015Z,43.80
2019-02-20T13:55:34.446Z,44.50
2019-02-20T13:58:07.932Z,45.50
2019-02-20T14:00:43.378Z,44.90
2019-02-20T14:03:18.060Z,43.90
2019-02-20T14:05:52.611Z,44.00
2019-02-20T14:08:27.647Z,44.70
2019-02-20T14:11:02.509Z,45.20
2019-02-20T14:13:37.103Z,45.10
2019-02-20T14:16:12.503Z,44.80
2019-02-20T14:18:47.575Z,45.10
2019-02-20T14:21:23.561Z,44.10
2019-02-20T14:23:58.173Z,44.60
2019-02-20T14:26:33.085Z,45.00
2019-02-20T14:29:07.991Z,44.10
2019-02-20T14:31:46.062Z,43.60
2019-02-20T14:34:21.704Z,42.40
2019-02-20T14:36:56.312Z,42.90
2019-02-20T14:39:30.843Z,42.70
2019-02-20T14:42:08.069Z,43.00
2019-02-20T14:44:43.011Z,43.10
2019-02-20T14:47:17.987Z,43.20
2019-02-20T14:49:52.284Z,43.00
2019-02-20T14:52:26.783Z,42.50
2019-02-20T14:55:00.922Z,42.90
2019-02-20T14:57:35.823Z,42.60
2019-02-20T15:00:10.896Z,43.00
2019-02-20T15:02:45.305Z,42.00
2019-02-20T15:05:20.226Z,42.30
2019-02-20T15:07:54.637Z,43.40
2019-02-20T15:10:30.987Z,43.60
2019-02-20T15:13:07.789Z,43.20
2019-02-20T15:15:42.168Z,42.90
2019-02-20T15:18:17.204Z,43.20
2019-02-20T15:20:53.681Z,44.40
2019-02-20T15:23:29.001Z,44.20
2019-02-20T15:26:05.047Z,44.50
2019-02-20T15:28:38.519Z,44.80
2019-02-20T15:31:14.553Z,43.00
2019-02-20T15:33:48.621Z,43.00
2019-02-20T15:36:26.595Z,42.60
2019-02-20T15:39:03.104Z,42.70
2019-02-20T15:41:38.565Z,43.20
2019-02-20T15:44:13.921Z,42.80
2019-02-20T15:46:48.696Z,42.90
2019-02-20T15:49:23.168Z,42.40
2019-02-20T15:51:58.909Z,42.50
2019-02-20T15:54:34.468Z,41.70
2019-02-20T15:57:10.642Z,41.00
2019-02-20T15:59:45.002Z,41.60
2019-02-20T16:02:19.985Z,41.30
2019-02-20T16:04:56.489Z,41.20
2019-02-20T16:07:32.224Z,41.30
2019-02-20T16:10:10.625Z,41.50
2019-02-20T16:12:46.551Z,41.70
2019-02-20T16:15:20.963Z,40.90
2019-02-20T16:17:56.528Z,40.40
2019-02-20T16:20:30.744Z,40.80
2019-02-20T16:23:07.094Z,41.20
2019-02-20T16:25:44.941Z,41.00
2019-02-20T16:28:21.513Z,40.80
2019-02-20T16:30:58.359Z,40.80
2019-02-20T16:33:43.180Z,40.80
2019-02-20T16:36:17.659Z,40.20
2019-02-20T16:38:54.123Z,39.80
2019-02-20T16:41:30.151Z,39.30
2019-02-20T16:44:05.231Z,38.60
2019-02-20T16:46:40.453Z,38.10
2019-02-20T16:49:14.807Z,37.50
2019-02-20T16:51:53.359Z,37.20
2019-02-20T16:54:29.321Z,37.20
2019-02-20T16:57:04.173Z,37.50
2019-02-20T16:59:38.816Z,37.30
2019-02-20T17:02:13.829Z,37.00
2019-02-20T17:04:48.349Z,36.90
2019-02-20T17:07:24.245Z,36.80
2019-02-20T17:09:58.185Z,37.60
2019-02-20T17:12:33.740Z,37.90
2019-02-20T17:15:09.652Z,38.40
2019-02-20T17:17:45.543Z,38.80
2019-02-20T17:20:22.137Z,39.40
2019-02-20T17:22:56.088Z,39.50
2019-02-20T17:25:30.868Z,40.00
2019-02-20T17:28:06.252Z,40.60
2019-02-20T17:30:44.634Z,40.90
2019-02-20T17:33:19.570Z,41.00
2019-02-20T17:35:55.516Z,41.00
2019-02-20T17:38:30.423Z,41.20
2019-02-20T17:41:05.741Z,41.80
2019-02-20T17:43:43.499Z,42.30
2019-02-20T17:46:19.002Z,42.50
2019-02-20T17:48:53.875Z,42.70
2019-02-20T17:51:28.252Z,42.50
2019-02-20T17:54:03.322Z,42.20
2019-02-20T17:56:38.100Z,41.80
2019-02-20T17:59:21.596Z,41.70
2019-02-20T18:01:59.432Z,41.50
2019-02-20T18:04:36.063Z,41.30
2019-02-20T18:07:12.260Z,41.00
2019-02-20T18:09:47.783Z,40.50
2019-02-20T18:12:27.068Z,40.70
2019-02-20T18:15:22.733Z,41.20
2019-02-20T18:17:55.841Z,41.30
2019-02-20T18:20:29.944Z,40.50
2019-02-20T18:23:04.525Z,39.80
2019-02-20T18:25:39.923Z,39.30
2019-02-20T18:28:13.370Z,39.40
2019-02-20T18:30:56.689Z,39.70
2019-02-20T18:33:30.302Z,39.30
2019-02-20T18:36:03.163Z,40.10
2019-02-20T18:38:37.765Z,39.60
2019-02-20T18:41:10.112Z,39.90
2019-02-20T18:43:44.335Z,39.80
2019-02-20T18:46:17.863Z,40.10
2019-02-20T18:48:51.041Z,39.70
2019-02-20T18:51:24.370Z,39.70
2019-02-20T18:53:58.914Z,39.70
2019-02-20T18:56:34.177Z,40.40
2019-02-20T18:59:09.028Z,41.00
2019-02-20T19:01:42.360Z,40.40
2019-02-20T19:04:15.397Z,39.70
2019-02-20T19:09:47.518Z,39.70
2019-02-20T19:13:33.128Z,39.50
2019-02-20T19:17:17.263Z,39.50
2019-02-20T19:20:56.055Z,40.20
2019-02-20T19:24:36.942Z,40.70
2019-02-20T19:27:47.841Z,41.10
2019-02-20T19:31:09.684Z,41.10
2019-02-20T19:34:40.383Z,41.10
2019-02-20T19:38:29.565Z,41.60
2019-02-20T19:42:20.922Z,41.60
2019-02-20T19:46:00.449Z,41.50
2019-02-20T19:49:34.685Z,41.10
2019-02-20T19:52:45.146Z,40.40
2019-02-20T19:55:55.712Z,40.20
2019-02-20T19:59:23.251Z,39.90
2019-02-20T20:02:58.944Z,39.70
2019-02-20T20:06:28.514Z,39.30
2019-02-20T20:09:39.650Z,39.30
2019-02-20T20:13:03.209Z,39.90
2019-02-20T20:16:28.046Z,40.50
2019-02-20T20:20:00.427Z,40.70
2019-02-20T20:23:27.453Z,41.20
2019-02-20T20:26:57.549Z,41.20
2019-02-20T20:30:32.039Z,41.80
2019-02-20T20:33:57.734Z,41.60
2019-02-20T20:37:19.466Z,41.30
2019-02-20T20:40:50.910Z,40.70
2019-02-20T20:44:28.293Z,40.40
2019-02-20T20:47:58.235Z,40.00
2019-02-20T20:51:19.246Z,39.10
2019-02-20T20:54:14.259Z,38.80
2019-02-20T20:57:40.518Z,39.90
2019-02-20T21:01:02.712Z,40.20
2019-02-20T21:03:38.117Z,40.30
2019-02-20T21:07:00.410Z,40.30
2019-02-20T21:10:46.512Z,39.90
2019-02-20T21:14:22.747Z,40.30
2019-02-20T21:18:07.967Z,41.00
2019-02-20T21:21:30.814Z,41.40
2019-02-20T21:25:17.146Z,42.00
2019-02-20T21:28:56.576Z,42.40
2019-02-20T21:32:10.890Z,42.70
2019-02-20T21:35:31.293Z,42.70
2019-02-20T21:39:07.235Z,43.00
2019-02-20T21:42:20.167Z,43.30
2019-02-20T21:45:15.686Z,43.10
2019-02-20T21:48:37.041Z,43.00
2019-02-20T21:52:15.433Z,42.90
2019-02-20T21:55:49.235Z,42.70
2019-02-20T21:59:38.689Z,42.70
2019-02-20T22:03:00.459Z,42.70
2019-02-20T22:05:54.749Z,42.80
2019-02-20T22:09:12.058Z,43.20
2019-02-20T22:12:31.043Z,43.10
2019-02-20T22:16:08.689Z,42.80
2019-02-20T22:19:39.820Z,42.70
2019-02-20T22:22:56.101Z,42.90
2019-02-20T22:26:25.005Z,43.50
2019-02-20T22:30:01.238Z,43.40
2019-02-20T22:33:27.919Z,43.50
2019-02-20T22:37:02.492Z,44.00
2019-02-20T22:40:23.741Z,44.00
2019-02-20T22:44:18.681Z,43.30
2019-02-20T22:47:57.130Z,43.50
2019-02-20T22:51:36.786Z,43.50
2019-02-20T22:55:15.644Z,43.60
2019-02-20T22:58:53.991Z,43.70
2019-02-20T23:01:59.374Z,43.70
2019-02-20T23:05:06.855Z,44.30
2019-02-20T23:08:04.195Z,44.10
2019-02-20T23:11:42.684Z,44.10
2019-02-20T23:15:04.044Z,44.10
2019-02-20T23:17:38.329Z,44.30
2019-02-20T23:20:13.648Z,44.50
2019-02-20T23:22:47.887Z,44.80
2019-02-20T23:25:22.044Z,44.80
2019-02-20T23:27:57.081Z,44.70
2019-02-20T23:30:32.065Z,44.40
2019-02-20T23:33:07.256Z,44.20
2019-02-20T23:35:42.187Z,44.20
2019-02-20T23:38:17.497Z,44.30
2019-02-20T23:40:53.370Z,44.20
2019-02-20T23:43:27.894Z,44.10
2019-02-20T23:46:02.859Z,44.00
2019-02-20T23:48:37.246Z,44.20
2019-02-20T23:51:11.672Z,43.90
2019-02-20T23:53:47.898Z,44.00
2019-02-20T23:56:22.340Z,43.70
2019-02-20T23:58:56.721Z,43.20
